Time;durP1;ratioP1;P1;durP2;ratioP2;P2;SDS_P1;SDS_P2;PMS_P1;PMS_P2;Temp;Humidity;BMP_temperature;BMP_pressure;BME280_temperature;BME280_humidity;BME280_pressure;Samples;Min_cycle;Max_cycle;Signal;HPM_P1;HPM_P2
2022/01/28 00:00:13;;;;;;;;;;;21.10;31.20;;;;;;466548;255;2321;-40
2022/01/28 00:02:29;;;;;;;;;;;21.10;31.20;;;;;;466668;255;2315;-40
2022/01/28 00:04:15;;;;;;;;;;;21.10;31.20;;;;;;465319;255;2383;-40
2022/01/28 00:06:15;;;;;;;;;;;21.10;31.20;;;;;;466541;255;2344;-40
2022/01/28 00:08:16;;;;;;;;;;;21.10;31.20;;;;;;466640;255;2406;-40
2022/01/28 00:10:17;;;;;;;;;;;21.10;31.30;;;;;;466768;254;1021;-40
2022/01/28 00:12:18;;;;;;;;;;;21.00;31.20;;;;;;467030;254;1282;-40
2022/01/28 00:14:27;;;;;;;;;;;21.00;31.30;;;;;;466639;254;1278;-39
2022/01/28 00:16:58;;;;;;;;;;;21.00;31.30;;;;;;466571;255;2344;-40
2022/01/28 00:37:48;;;;;;;;;;;20.90;31.50;;;;;;466672;254;1223;-39
2022/01/28 00:39:27;;;;;;;;;;;20.90;31.40;;;;;;465206;255;1702;-39
2022/01/28 00:41:28;;;;;;;;;;;20.90;31.40;;;;;;466672;254;2201;-40
2022/01/28 00:43:30;;;;;;;;;;;20.90;31.50;;;;;;466880;254;1236;-40
2022/01/28 00:45:31;;;;;;;;;;;20.90;31.50;;;;;;466660;254;1050;-40
2022/01/28 00:47:32;;;;;;;;;;;20.90;31.50;;;;;;466933;254;1312;-40
2022/01/28 00:49:34;;;;;;;;;;;20.90;31.50;;;;;;466940;254;1104;-40
2022/01/28 00:51:35;;;;;;;;;;;20.90;31.50;;;;;;466513;254;1335;-40
2022/01/28 00:53:36;;;;;;;;;;;20.90;31.60;;;;;;467072;254;1074;-40
2022/01/28 00:55:38;;;;;;;;;;;20.90;31.50;;;;;;466655;254;1150;-40
2022/01/28 00:57:39;;;;;;;;;;;20.90;31.50;;;;;;466726;254;1255;-40
2022/01/28 00:59:40;;;;;;;;;;;20.90;31.60;;;;;;466758;254;1214;-39
2022/01/28 01:01:42;;;;;;;;;;;20.90;31.60;;;;;;466877;254;2122;-40
2022/01/28 01:03:43;;;;;;;;;;;20.80;31.60;;;;;;466932;254;1184;-40
2022/01/28 01:05:44;;;;;;;;;;;20.80;31.60;;;;;;467053;254;1214;-40
2022/01/28 01:07:46;;;;;;;;;;;20.80;31.60;;;;;;466672;254;1169;-40
2022/01/28 01:09:48;;;;;;;;;;;20.80;31.70;;;;;;467076;254;1109;-40
2022/01/28 01:11:48;;;;;;;;;;;20.80;31.70;;;;;;466677;254;2080;-40
2022/01/28 01:13:50;;;;;;;;;;;20.80;31.70;;;;;;466698;254;1233;-40
2022/01/28 01:15:55;;;;;;;;;;;20.80;31.60;;;;;;466630;254;1264;-40
2022/01/28 01:17:59;;;;;;;;;;;20.80;31.60;;;;;;466819;255;2033;-40
2022/01/28 01:20:08;;;;;;;;;;;20.80;31.70;;;;;;466439;255;2300;-40
2022/01/28 01:21:59;;;;;;;;;;;20.80;31.70;;;;;;465728;255;2218;-40
2022/01/28 01:23:58;;;;;;;;;;;20.80;31.70;;;;;;466538;255;2258;-40
2022/01/28 01:26:07;;;;;;;;;;;20.80;31.60;;;;;;466538;254;2138;-40
2022/01/28 01:28:01;;;;;;;;;;;20.80;31.70;;;;;;466211;255;2094;-40
2022/01/28 01:30:02;;;;;;;;;;;20.80;31.70;;;;;;466728;254;1427;-39
2022/01/28 01:32:12;;;;;;;;;;;20.80;31.80;;;;;;466959;254;1777;-40
2022/01/28 01:34:11;;;;;;;;;;;20.80;31.80;;;;;;466408;255;1275;-40
2022/01/28 01:36:06;;;;;;;;;;;20.70;31.80;;;;;;466207;255;2082;-40
2022/01/28 01:38:09;;;;;;;;;;;20.80;31.80;;;;;;466614;254;1243;-40
2022/01/28 01:40:09;;;;;;;;;;;20.80;31.80;;;;;;466577;255;1608;-39
2022/01/28 01:42:20;;;;;;;;;;;20.80;31.80;;;;;;466657;254;2134;-40
2022/01/28 01:44:23;;;;;;;;;;;20.80;31.80;;;;;;466208;255;1390;-40
2022/01/28 01:46:24;;;;;;;;;;;20.80;31.80;;;;;;466221;255;2424;-40
2022/01/28 01:52:56;;;;;;;;;;;20.80;31.80;;;;;;466991;254;1332;-40
2022/01/28 01:54:58;;;;;;;;;;;20.80;31.70;;;;;;467006;254;1144;-40
2022/01/28 01:56:59;;;;;;;;;;;20.80;31.80;;;;;;466840;254;1296;-40
2022/01/28 01:59:00;;;;;;;;;;;20.80;31.80;;;;;;466853;254;1245;-40
2022/01/28 02:01:02;;;;;;;;;;;20.80;31.80;;;;;;466844;254;2141;-40
2022/01/28 02:03:03;;;;;;;;;;;20.80;31.70;;;;;;466622;254;1242;-39
2022/01/28 02:05:04;;;;;;;;;;;20.80;31.70;;;;;;466703;254;1120;-40
2022/01/28 02:07:06;;;;;;;;;;;20.70;31.70;;;;;;466690;254;1231;-40
2022/01/28 02:09:07;;;;;;;;;;;20.80;31.70;;;;;;466629;254;1138;-40
2022/01/28 02:11:08;;;;;;;;;;;20.80;31.70;;;;;;466566;254;1245;-40
2022/01/28 02:13:10;;;;;;;;;;;20.80;31.70;;;;;;467001;254;1279;-40
2022/01/28 02:15:11;;;;;;;;;;;20.80;31.70;;;;;;466748;254;1248;-40
2022/01/28 02:17:12;;;;;;;;;;;20.80;31.60;;;;;;466639;254;1189;-40
2022/01/28 02:19:14;;;;;;;;;;;20.80;31.60;;;;;;466689;254;1240;-40
2022/01/28 02:21:17;;;;;;;;;;;20.90;31.60;;;;;;466599;254;2229;-40
2022/01/28 02:23:16;;;;;;;;;;;20.80;31.60;;;;;;466640;255;2832;-40
2022/01/28 02:25:17;;;;;;;;;;;20.80;31.60;;;;;;466560;254;1043;-40
2022/01/28 02:27:19;;;;;;;;;;;20.90;31.60;;;;;;466639;254;1185;-40
2022/01/28 02:29:28;;;;;;;;;;;20.80;31.60;;;;;;466876;254;1214;-40
2022/01/28 02:31:28;;;;;;;;;;;20.80;31.60;;;;;;466657;255;2252;-40
2022/01/28 02:33:28;;;;;;;;;;;20.90;31.70;;;;;;466681;255;2311;-40
2022/01/28 02:35:30;;;;;;;;;;;20.80;31.60;;;;;;466900;254;1218;-40
2022/01/28 02:37:31;;;;;;;;;;;20.80;31.60;;;;;;466627;254;1219;-40
2022/01/28 02:39:32;;;;;;;;;;;20.80;31.60;;;;;;466750;254;1015;-40
2022/01/28 02:41:38;;;;;;;;;;;20.90;31.70;;;;;;466719;254;2127;-40
2022/01/28 02:43:40;;;;;;;;;;;20.80;31.60;;;;;;466745;255;2309;-40
2022/01/28 02:45:38;;;;;;;;;;;20.80;31.60;;;;;;466418;255;2083;-40
2022/01/28 02:47:38;;;;;;;;;;;20.90;31.70;;;;;;466612;255;2364;-40
2022/01/28 02:49:42;;;;;;;;;;;20.80;31.70;;;;;;466963;254;972;-40
2022/01/28 02:51:43;;;;;;;;;;;20.90;31.70;;;;;;466540;254;2123;-40
2022/01/28 02:53:47;;;;;;;;;;;20.80;31.70;;;;;;466582;255;2421;-40
2022/01/28 02:55:45;;;;;;;;;;;20.80;31.70;;;;;;466547;255;2051;-40
2022/01/28 02:58:02;;;;;;;;;;;20.90;31.70;;;;;;466607;254;1285;-40
2022/01/28 02:59:47;;;;;;;;;;;20.90;31.60;;;;;;465890;255;2276;-40
2022/01/28 03:01:49;;;;;;;;;;;20.90;31.60;;;;;;466597;254;2114;-40
2022/01/28 03:03:50;;;;;;;;;;;20.90;31.70;;;;;;466835;254;1205;-40
2022/01/28 03:05:51;;;;;;;;;;;20.90;31.60;;;;;;467011;254;1211;-40
2022/01/28 03:07:53;;;;;;;;;;;20.90;31.60;;;;;;466784;254;1210;-40
2022/01/28 03:10:24;;;;;;;;;;;20.90;31.60;;;;;;466639;254;1346;-40
2022/01/28 03:12:14;;;;;;;;;;;20.90;31.60;;;;;;465178;255;2239;-40
2022/01/28 03:14:19;;;;;;;;;;;20.90;31.60;;;;;;466543;255;2306;-40
2022/01/28 03:16:20;;;;;;;;;;;20.90;31.60;;;;;;466519;255;2093;-40
2022/01/28 03:18:22;;;;;;;;;;;20.90;31.60;;;;;;466914;255;2013;-39
2022/01/28 03:20:36;;;;;;;;;;;20.90;31.60;;;;;;466463;255;2270;-40
2022/01/28 03:22:33;;;;;;;;;;;20.90;31.70;;;;;;466263;255;2201;-40
2022/01/28 03:24:33;;;;;;;;;;;20.90;31.60;;;;;;466789;254;2084;-40
2022/01/28 03:26:34;;;;;;;;;;;20.90;31.60;;;;;;466698;254;1212;-40
2022/01/28 03:28:35;;;;;;;;;;;20.90;31.60;;;;;;466823;254;1069;-40
2022/01/28 03:30:37;;;;;;;;;;;20.90;31.70;;;;;;466742;254;1169;-40
2022/01/28 03:32:38;;;;;;;;;;;20.90;31.60;;;;;;466618;254;1209;-40
2022/01/28 03:34:39;;;;;;;;;;;20.90;31.70;;;;;;466604;254;1099;-40
2022/01/28 03:36:41;;;;;;;;;;;20.90;31.60;;;;;;466557;254;1346;-40
2022/01/28 03:38:42;;;;;;;;;;;20.90;31.60;;;;;;466992;254;1173;-40
2022/01/28 03:40:43;;;;;;;;;;;20.90;31.60;;;;;;466670;254;1733;-40
2022/01/28 03:42:45;;;;;;;;;;;20.90;31.70;;;;;;466550;254;2142;-40
2022/01/28 03:44:46;;;;;;;;;;;20.90;31.60;;;;;;466752;254;1214;-40
2022/01/28 03:46:47;;;;;;;;;;;20.90;31.60;;;;;;466600;254;1257;-40
2022/01/28 03:48:48;;;;;;;;;;;20.90;31.60;;;;;;466733;254;1201;-40
2022/01/28 03:50:51;;;;;;;;;;;20.90;31.60;;;;;;466662;254;1358;-40
2022/01/28 03:52:51;;;;;;;;;;;20.90;31.70;;;;;;466588;255;1495;-40
2022/01/28 03:54:53;;;;;;;;;;;20.90;31.70;;;;;;466683;254;1139;-40
2022/01/28 03:56:54;;;;;;;;;;;20.90;31.70;;;;;;466543;254;1586;-40
2022/01/28 03:58:55;;;;;;;;;;;20.90;31.60;;;;;;467036;254;1240;-40
2022/01/28 04:00:58;;;;;;;;;;;20.90;31.60;;;;;;466836;254;1931;-40
2022/01/28 04:03:05;;;;;;;;;;;20.90;31.60;;;;;;466844;255;2334;-40
2022/01/28 04:05:51;;;;;;;;;;;20.90;31.60;;;;;;466419;255;2029;-40
2022/01/28 04:11:53;;;;;;;;;;;20.90;31.60;;;;;;466512;256;1198;-40
2022/01/28 04:13:54;;;;;;;;;;;20.90;31.70;;;;;;466483;255;1956;-40
2022/01/28 04:16:16;;;;;;;;;;;20.90;31.70;;;;;;466548;255;1809;-40
2022/01/28 04:17:55;;;;;;;;;;;20.90;31.70;;;;;;465246;255;1849;-40
2022/01/28 04:19:57;;;;;;;;;;;20.80;31.70;;;;;;466827;254;1059;-40
2022/01/28 04:21:58;;;;;;;;;;;20.90;31.70;;;;;;466622;254;2125;-40
2022/01/28 04:23:59;;;;;;;;;;;20.90;31.70;;;;;;466830;254;1117;-40
2022/01/28 04:26:00;;;;;;;;;;;20.90;31.70;;;;;;466556;254;1201;-40
2022/01/28 04:28:02;;;;;;;;;;;20.90;31.70;;;;;;466633;254;2455;-40
2022/01/28 04:30:03;;;;;;;;;;;20.90;31.70;;;;;;466658;254;1099;-40
2022/01/28 04:32:04;;;;;;;;;;;20.90;31.70;;;;;;466565;254;1279;-40
2022/01/28 04:34:06;;;;;;;;;;;20.90;31.80;;;;;;466738;254;1265;-40
2022/01/28 04:36:10;;;;;;;;;;;20.80;31.80;;;;;;466572;254;1179;-40
2022/01/28 04:38:20;;;;;;;;;;;20.80;31.80;;;;;;466472;255;2188;-40
2022/01/28 04:40:13;;;;;;;;;;;20.80;31.80;;;;;;465871;255;1957;-40
2022/01/28 04:42:31;;;;;;;;;;;20.80;31.90;;;;;;466730;254;2127;-40
2022/01/28 04:44:29;;;;;;;;;;;20.80;31.90;;;;;;465938;255;2351;-40
2022/01/28 04:46:32;;;;;;;;;;;20.80;31.90;;;;;;457766;255;2204;-40
2022/01/28 04:48:33;;;;;;;;;;;20.80;31.90;;;;;;466325;255;2211;-40
2022/01/28 04:50:37;;;;;;;;;;;20.80;31.90;;;;;;466521;255;2271;-40
2022/01/28 04:52:48;;;;;;;;;;;20.70;32.00;;;;;;466007;255;2093;-39
2022/01/28 04:54:52;;;;;;;;;;;20.80;32.00;;;;;;466014;255;1589;-40
2022/01/28 04:56:52;;;;;;;;;;;20.80;31.90;;;;;;465627;255;2384;-40
2022/01/28 04:59:08;;;;;;;;;;;20.80;32.00;;;;;;466545;255;2448;-40
2022/01/28 05:01:15;;;;;;;;;;;20.80;31.90;;;;;;465977;255;2347;-40
2022/01/28 05:03:18;;;;;;;;;;;20.70;31.90;;;;;;465847;255;2279;-40
2022/01/28 05:05:34;;;;;;;;;;;20.80;32.00;;;;;;465739;255;2350;-40
2022/01/28 05:07:32;;;;;;;;;;;20.70;32.00;;;;;;465232;255;2129;-40
2022/01/28 05:14:30;;;;;;;;;;;20.70;32.00;;;;;;466760;255;1233;-40
2022/01/28 05:16:54;;;;;;;;;;;20.70;32.00;;;;;;465645;255;1909;-39
2022/01/28 05:23:32;;;;;;;;;;;20.70;32.00;;;;;;467007;255;2118;-40
2022/01/28 05:27:51;;;;;;;;;;;20.70;31.90;;;;;;466588;254;1151;-40
2022/01/28 05:29:52;;;;;;;;;;;20.70;32.00;;;;;;466976;254;2049;-40
2022/01/28 05:31:53;;;;;;;;;;;20.70;32.00;;;;;;466605;254;1356;-40
2022/01/28 05:33:54;;;;;;;;;;;20.70;32.00;;;;;;466741;254;1073;-40
2022/01/28 05:35:56;;;;;;;;;;;20.70;32.00;;;;;;466575;254;1235;-40
2022/01/28 05:37:57;;;;;;;;;;;20.70;32.00;;;;;;466587;254;1505;-40
2022/01/28 05:39:59;;;;;;;;;;;20.70;32.00;;;;;;466559;254;1094;-40
2022/01/28 05:42:00;;;;;;;;;;;20.70;32.10;;;;;;466656;254;2145;-40
2022/01/28 05:44:02;;;;;;;;;;;20.70;32.00;;;;;;466777;254;1247;-40
2022/01/28 05:46:02;;;;;;;;;;;20.70;32.10;;;;;;466409;255;2493;-40
2022/01/28 05:48:04;;;;;;;;;;;20.80;31.90;;;;;;466500;254;1220;-40
2022/01/28 05:50:05;;;;;;;;;;;20.90;31.60;;;;;;466578;254;1258;-40
2022/01/28 05:52:06;;;;;;;;;;;21.20;31.40;;;;;;466567;254;1195;-40
2022/01/28 05:54:08;;;;;;;;;;;21.30;31.10;;;;;;466723;254;1078;-40
2022/01/28 05:56:09;;;;;;;;;;;21.40;30.90;;;;;;466495;254;1376;-40
2022/01/28 05:58:10;;;;;;;;;;;21.50;30.80;;;;;;466581;254;1220;-40
2022/01/28 06:00:13;;;;;;;;;;;21.60;30.70;;;;;;466818;254;1146;-40
2022/01/28 06:02:13;;;;;;;;;;;21.60;30.50;;;;;;466519;255;2201;-40
2022/01/28 06:04:16;;;;;;;;;;;21.70;30.50;;;;;;466596;254;1222;-40
2022/01/28 06:06:20;;;;;;;;;;;21.70;30.40;;;;;;466497;254;1719;-40
2022/01/28 06:08:20;;;;;;;;;;;21.80;30.40;;;;;;466526;254;1487;-40
2022/01/28 06:10:21;;;;;;;;;;;21.80;30.30;;;;;;466466;254;1351;-40
2022/01/28 06:12:22;;;;;;;;;;;21.90;30.30;;;;;;466517;254;1488;-40
2022/01/28 06:14:24;;;;;;;;;;;21.90;30.30;;;;;;466639;254;1313;-40
2022/01/28 06:16:25;;;;;;;;;;;21.90;30.20;;;;;;466433;254;1378;-40
2022/01/28 06:18:26;;;;;;;;;;;22.00;30.20;;;;;;466820;254;1224;-40
2022/01/28 06:20:28;;;;;;;;;;;22.00;30.20;;;;;;466447;254;1372;-40
2022/01/28 06:22:29;;;;;;;;;;;22.00;30.10;;;;;;466447;254;2205;-40
2022/01/28 06:24:30;;;;;;;;;;;22.00;30.10;;;;;;466451;254;1230;-40
2022/01/28 06:26:32;;;;;;;;;;;22.10;30.10;;;;;;466566;254;1353;-40
2022/01/28 06:28:33;;;;;;;;;;;22.10;30.00;;;;;;466363;254;1163;-40
2022/01/28 06:30:34;;;;;;;;;;;22.10;30.00;;;;;;466379;254;1313;-40
2022/01/28 06:32:35;;;;;;;;;;;22.10;30.00;;;;;;466309;254;1206;-40
2022/01/28 06:34:38;;;;;;;;;;;22.10;30.00;;;;;;466461;254;1152;-40
2022/01/28 06:36:38;;;;;;;;;;;22.10;30.00;;;;;;466225;256;1366;-40
2022/01/28 06:38:39;;;;;;;;;;;22.20;30.00;;;;;;466387;254;1269;-40
2022/01/28 06:40:41;;;;;;;;;;;22.20;30.00;;;;;;466333;254;1159;-40
2022/01/28 06:42:42;;;;;;;;;;;22.20;30.00;;;;;;466325;254;2207;-40
2022/01/28 06:44:43;;;;;;;;;;;22.20;30.00;;;;;;466394;254;1307;-40
2022/01/28 06:46:45;;;;;;;;;;;22.30;30.00;;;;;;466451;254;1327;-40
2022/01/28 06:48:46;;;;;;;;;;;22.30;30.00;;;;;;466371;254;1247;-40
2022/01/28 06:50:48;;;;;;;;;;;22.30;30.00;;;;;;466290;254;1391;-40
2022/01/28 06:52:49;;;;;;;;;;;22.30;30.00;;;;;;466432;254;1301;-40
2022/01/28 06:54:50;;;;;;;;;;;22.30;29.90;;;;;;466355;254;1148;-40
2022/01/28 06:56:51;;;;;;;;;;;22.30;29.90;;;;;;466398;254;1228;-40
2022/01/28 06:58:53;;;;;;;;;;;22.30;29.90;;;;;;466470;254;1204;-40
2022/01/28 07:00:54;;;;;;;;;;;22.40;29.90;;;;;;466344;254;1402;-40
2022/01/28 07:02:55;;;;;;;;;;;22.40;29.90;;;;;;466376;254;2205;-40
2022/01/28 07:04:57;;;;;;;;;;;22.40;29.90;;;;;;466118;254;1197;-40
2022/01/28 07:06:58;;;;;;;;;;;22.40;29.90;;;;;;466204;254;1272;-40
2022/01/28 07:08:59;;;;;;;;;;;22.40;29.80;;;;;;466149;254;1240;-40
2022/01/28 07:11:01;;;;;;;;;;;22.40;29.80;;;;;;466143;254;1362;-40
2022/01/28 07:13:02;;;;;;;;;;;22.40;29.80;;;;;;466071;254;1193;-40
2022/01/28 07:15:03;;;;;;;;;;;22.50;29.80;;;;;;466321;254;1106;-40
2022/01/28 07:17:04;;;;;;;;;;;22.50;29.70;;;;;;466157;254;1178;-40
2022/01/28 07:19:08;;;;;;;;;;;22.50;29.70;;;;;;466009;254;1395;-40
2022/01/28 07:21:07;;;;;;;;;;;22.50;29.70;;;;;;466083;255;1521;-40
2022/01/28 07:23:08;;;;;;;;;;;22.50;29.70;;;;;;466170;254;2126;-40
2022/01/28 07:25:10;;;;;;;;;;;22.50;29.70;;;;;;466198;254;1125;-40
2022/01/28 07:27:11;;;;;;;;;;;22.50;29.70;;;;;;466087;254;1485;-40
2022/01/28 07:29:13;;;;;;;;;;;22.50;29.60;;;;;;466247;254;1074;-40
2022/01/28 07:31:16;;;;;;;;;;;22.60;29.70;;;;;;466251;254;1286;-40
2022/01/28 07:33:15;;;;;;;;;;;22.60;29.70;;;;;;465975;255;2204;-40
2022/01/28 07:35:17;;;;;;;;;;;22.60;29.70;;;;;;466120;254;1126;-40
2022/01/28 07:37:18;;;;;;;;;;;22.60;29.70;;;;;;466219;254;1360;-40
2022/01/28 07:39:19;;;;;;;;;;;22.60;29.70;;;;;;466133;254;1071;-40
2022/01/28 07:41:21;;;;;;;;;;;22.60;29.70;;;;;;466108;254;1199;-40
2022/01/28 07:43:22;;;;;;;;;;;22.60;29.70;;;;;;466128;254;2212;-40
2022/01/28 07:45:24;;;;;;;;;;;22.60;29.70;;;;;;466320;254;1631;-40
2022/01/28 07:47:24;;;;;;;;;;;22.60;29.70;;;;;;466089;254;1542;-40
2022/01/28 07:49:26;;;;;;;;;;;22.60;29.70;;;;;;466127;254;1089;-40
2022/01/28 07:51:27;;;;;;;;;;;22.60;29.70;;;;;;465996;254;1217;-40
2022/01/28 07:53:28;;;;;;;;;;;22.60;29.70;;;;;;466165;254;1319;-40
2022/01/28 07:55:30;;;;;;;;;;;22.60;29.60;;;;;;466111;254;1188;-40
2022/01/28 07:57:31;;;;;;;;;;;22.60;29.60;;;;;;466068;254;1523;-40
2022/01/28 07:59:32;;;;;;;;;;;22.60;29.60;;;;;;466166;254;1075;-40
2022/01/28 08:01:34;;;;;;;;;;;22.60;29.60;;;;;;466041;254;1393;-40
2022/01/28 08:03:35;;;;;;;;;;;22.70;29.60;;;;;;466061;254;2213;-40
2022/01/28 08:05:36;;;;;;;;;;;22.70;29.50;;;;;;465924;254;1091;-40
2022/01/28 08:07:38;;;;;;;;;;;22.70;29.50;;;;;;466001;254;1259;-40
2022/01/28 08:09:39;;;;;;;;;;;22.70;29.60;;;;;;466005;254;1136;-40
2022/01/28 08:11:40;;;;;;;;;;;22.70;29.60;;;;;;465902;254;1181;-40
2022/01/28 08:13:42;;;;;;;;;;;22.70;29.60;;;;;;465959;254;1257;-40
2022/01/28 08:15:43;;;;;;;;;;;22.70;29.60;;;;;;466052;254;1124;-40
2022/01/28 08:17:44;;;;;;;;;;;22.70;29.60;;;;;;465995;254;1367;-40
2022/01/28 08:19:46;;;;;;;;;;;22.70;29.60;;;;;;466170;254;1096;-40
2022/01/28 08:21:47;;;;;;;;;;;22.70;29.60;;;;;;465983;254;1529;-40
2022/01/28 08:23:48;;;;;;;;;;;22.70;29.60;;;;;;465972;254;2188;-40
2022/01/28 08:25:53;;;;;;;;;;;22.70;29.60;;;;;;465723;254;1265;-40
2022/01/28 08:27:51;;;;;;;;;;;22.70;29.50;;;;;;465556;255;1615;-40
2022/01/28 08:29:52;;;;;;;;;;;22.70;29.50;;;;;;465870;254;1129;-40
2022/01/28 08:31:54;;;;;;;;;;;22.70;29.50;;;;;;465795;254;1310;-40
2022/01/28 08:33:56;;;;;;;;;;;22.70;29.50;;;;;;465908;254;1147;-40
2022/01/28 08:35:56;;;;;;;;;;;22.70;29.40;;;;;;465888;254;2279;-40
2022/01/28 08:37:58;;;;;;;;;;;22.70;29.50;;;;;;466006;254;1090;-40
2022/01/28 08:40:00;;;;;;;;;;;22.80;29.50;;;;;;465856;254;1100;-40
2022/01/28 08:42:01;;;;;;;;;;;22.80;29.50;;;;;;465890;254;1216;-40
2022/01/28 08:44:02;;;;;;;;;;;22.80;29.50;;;;;;466040;254;2217;-40
2022/01/28 08:46:04;;;;;;;;;;;22.80;29.50;;;;;;465917;254;1246;-40
2022/01/28 08:48:05;;;;;;;;;;;22.80;29.50;;;;;;465927;254;1331;-40
2022/01/28 08:50:06;;;;;;;;;;;22.80;29.50;;;;;;465806;254;1020;-40
2022/01/28 08:52:07;;;;;;;;;;;22.80;29.50;;;;;;465802;254;1261;-40
2022/01/28 08:54:09;;;;;;;;;;;22.80;29.50;;;;;;465811;254;1081;-40
2022/01/28 08:56:10;;;;;;;;;;;22.80;29.50;;;;;;465773;254;1367;-40
2022/01/28 08:58:13;;;;;;;;;;;22.80;29.50;;;;;;465926;254;1069;-40
2022/01/28 09:00:13;;;;;;;;;;;22.80;29.50;;;;;;466046;255;1752;-40
2022/01/28 09:02:14;;;;;;;;;;;22.80;29.50;;;;;;466003;254;1669;-40
2022/01/28 09:04:16;;;;;;;;;;;22.80;29.50;;;;;;465878;254;2196;-40
2022/01/28 09:06:17;;;;;;;;;;;22.80;29.40;;;;;;465826;254;1377;-40
2022/01/28 09:08:18;;;;;;;;;;;22.80;29.40;;;;;;466024;254;1224;-40
2022/01/28 09:10:24;;;;;;;;;;;22.80;29.40;;;;;;466144;254;1109;-40
2022/01/28 09:12:34;;;;;;;;;;;22.80;29.40;;;;;;465647;255;2175;-40
2022/01/28 09:14:29;;;;;;;;;;;22.80;29.40;;;;;;465502;255;2241;-40
2022/01/28 09:16:30;;;;;;;;;;;22.80;29.40;;;;;;465726;254;1449;-40
2022/01/28 09:18:32;;;;;;;;;;;22.80;29.40;;;;;;466248;254;1119;-40
2022/01/28 09:20:33;;;;;;;;;;;22.80;29.40;;;;;;466080;254;1368;-40
2022/01/28 09:22:36;;;;;;;;;;;22.80;29.40;;;;;;465968;254;1246;-40
2022/01/28 09:24:36;;;;;;;;;;;22.80;29.40;;;;;;465922;255;2217;-40
2022/01/28 09:26:37;;;;;;;;;;;22.80;29.40;;;;;;465963;254;1264;-40
2022/01/28 09:28:39;;;;;;;;;;;22.80;29.40;;;;;;466062;254;1515;-40
2022/01/28 09:30:40;;;;;;;;;;;22.80;29.40;;;;;;466082;254;1352;-40
2022/01/28 09:32:41;;;;;;;;;;;22.80;29.40;;;;;;466107;254;1133;-40
2022/01/28 09:34:43;;;;;;;;;;;22.80;29.40;;;;;;466004;254;1148;-40
2022/01/28 09:36:44;;;;;;;;;;;22.80;29.40;;;;;;466108;254;1543;-40
2022/01/28 09:38:45;;;;;;;;;;;22.90;29.40;;;;;;465989;254;1161;-40
2022/01/28 09:40:46;;;;;;;;;;;22.80;29.30;;;;;;465751;254;1374;-40
2022/01/28 09:42:49;;;;;;;;;;;22.90;29.30;;;;;;466099;254;1237;-40
2022/01/28 09:44:49;;;;;;;;;;;22.80;29.30;;;;;;465974;254;2202;-40
2022/01/28 09:46:51;;;;;;;;;;;22.90;29.30;;;;;;465971;254;1266;-40
2022/01/28 09:48:52;;;;;;;;;;;22.80;29.30;;;;;;465945;254;1216;-40
2022/01/28 09:50:53;;;;;;;;;;;22.90;29.30;;;;;;465893;254;1326;-40
2022/01/28 09:52:55;;;;;;;;;;;22.90;29.30;;;;;;466245;254;1308;-40
2022/01/28 09:54:56;;;;;;;;;;;22.90;29.30;;;;;;465922;254;1116;-40
2022/01/28 09:56:57;;;;;;;;;;;22.80;29.20;;;;;;465987;254;1344;-40
2022/01/28 09:58:59;;;;;;;;;;;22.90;29.30;;;;;;465953;254;1203;-40
2022/01/28 10:01:00;;;;;;;;;;;22.80;29.20;;;;;;465923;254;1213;-40
2022/01/28 10:03:03;;;;;;;;;;;22.90;29.30;;;;;;465850;254;1241;-40
2022/01/28 10:05:03;;;;;;;;;;;22.90;29.30;;;;;;465782;255;2276;-40
2022/01/28 10:07:04;;;;;;;;;;;22.90;29.30;;;;;;465865;254;1238;-40
2022/01/28 10:09:05;;;;;;;;;;;22.90;29.30;;;;;;465884;254;1181;-40
2022/01/28 10:11:09;;;;;;;;;;;22.90;29.30;;;;;;465856;254;1260;-40
2022/01/28 10:13:10;;;;;;;;;;;22.90;29.30;;;;;;466147;255;2200;-40
2022/01/28 10:15:18;;;;;;;;;;;22.90;29.30;;;;;;465821;254;1988;-40
2022/01/28 10:17:18;;;;;;;;;;;22.90;29.30;;;;;;466481;255;2035;-40
2022/01/28 10:19:19;;;;;;;;;;;22.90;29.20;;;;;;465968;254;1183;-40
2022/01/28 10:21:20;;;;;;;;;;;22.90;29.30;;;;;;465826;254;1263;-40
2022/01/28 10:23:22;;;;;;;;;;;22.90;29.20;;;;;;465906;254;2142;-40
2022/01/28 10:25:23;;;;;;;;;;;22.90;29.20;;;;;;465391;254;1102;-40
2022/01/28 10:27:24;;;;;;;;;;;22.90;29.20;;;;;;465634;254;1524;-40
2022/01/28 10:29:25;;;;;;;;;;;22.90;29.20;;;;;;465832;254;1232;-40
2022/01/28 10:31:27;;;;;;;;;;;22.90;29.20;;;;;;465675;254;1175;-40
2022/01/28 10:33:28;;;;;;;;;;;22.90;29.20;;;;;;465934;254;1285;-40
2022/01/28 10:35:30;;;;;;;;;;;22.90;29.20;;;;;;466006;254;1182;-40
2022/01/28 10:37:32;;;;;;;;;;;22.90;29.20;;;;;;466044;254;1183;-40
2022/01/28 10:39:32;;;;;;;;;;;22.90;29.20;;;;;;466000;255;2419;-40
2022/01/28 10:41:34;;;;;;;;;;;22.90;29.10;;;;;;465978;254;1335;-40
2022/01/28 10:43:35;;;;;;;;;;;23.00;29.20;;;;;;465953;254;2216;-40
2022/01/28 10:45:38;;;;;;;;;;;22.90;29.20;;;;;;465843;254;1285;-40
2022/01/28 10:47:38;;;;;;;;;;;22.90;29.10;;;;;;466008;255;1971;-40
2022/01/28 10:49:39;;;;;;;;;;;22.90;29.10;;;;;;466131;254;1214;-40
2022/01/28 10:51:40;;;;;;;;;;;23.00;29.10;;;;;;465890;254;1324;-40
2022/01/28 10:53:42;;;;;;;;;;;22.90;29.20;;;;;;465892;254;1353;-40
2022/01/28 10:55:43;;;;;;;;;;;22.90;29.10;;;;;;465808;254;1384;-40
2022/01/28 10:57:44;;;;;;;;;;;23.00;29.10;;;;;;465811;254;1240;-40
2022/01/28 10:59:47;;;;;;;;;;;22.90;29.10;;;;;;466124;254;1198;-40
2022/01/28 11:01:47;;;;;;;;;;;23.00;29.10;;;;;;465955;255;2612;-40
2022/01/28 11:03:48;;;;;;;;;;;23.00;29.10;;;;;;465938;254;2197;-40
2022/01/28 11:05:50;;;;;;;;;;;23.00;29.10;;;;;;465967;254;1427;-40
2022/01/28 11:07:51;;;;;;;;;;;23.00;29.10;;;;;;465988;254;1874;-40
2022/01/28 11:09:52;;;;;;;;;;;23.00;29.10;;;;;;465847;254;1142;-40
2022/01/28 11:11:54;;;;;;;;;;;23.00;29.10;;;;;;466014;254;1449;-40
2022/01/28 11:13:55;;;;;;;;;;;23.00;29.10;;;;;;466488;254;1136;-40
2022/01/28 11:15:57;;;;;;;;;;;23.00;29.10;;;;;;465949;254;1421;-40
2022/01/28 11:17:58;;;;;;;;;;;23.00;29.10;;;;;;466002;254;1169;-40
2022/01/28 11:19:59;;;;;;;;;;;23.00;29.10;;;;;;466008;254;1195;-40
2022/01/28 11:22:03;;;;;;;;;;;23.00;29.10;;;;;;465928;254;1221;-40
2022/01/28 11:24:04;;;;;;;;;;;23.00;29.10;;;;;;465916;255;2566;-40
2022/01/28 11:26:04;;;;;;;;;;;23.00;29.00;;;;;;465862;255;2345;-40
2022/01/28 11:28:05;;;;;;;;;;;23.00;29.00;;;;;;465978;254;1920;-40
2022/01/28 11:30:06;;;;;;;;;;;23.00;29.00;;;;;;466015;254;1078;-40
2022/01/28 11:32:07;;;;;;;;;;;23.00;29.00;;;;;;465836;254;1218;-40
2022/01/28 11:34:09;;;;;;;;;;;23.00;29.00;;;;;;465947;254;1079;-40
2022/01/28 11:36:10;;;;;;;;;;;23.00;29.00;;;;;;465936;254;1296;-40
2022/01/28 11:38:11;;;;;;;;;;;23.00;29.00;;;;;;465953;254;1189;-40
2022/01/28 11:40:12;;;;;;;;;;;23.00;29.00;;;;;;465831;254;1075;-40
2022/01/28 11:42:15;;;;;;;;;;;23.00;28.90;;;;;;465788;254;1698;-40
2022/01/28 11:44:15;;;;;;;;;;;23.00;29.00;;;;;;465927;255;2277;-40
2022/01/28 11:46:16;;;;;;;;;;;23.00;29.00;;;;;;465912;254;1352;-40
2022/01/28 11:48:18;;;;;;;;;;;23.00;29.00;;;;;;466088;254;1283;-40
2022/01/28 11:50:19;;;;;;;;;;;23.00;29.00;;;;;;466041;254;1186;-40
2022/01/28 11:52:21;;;;;;;;;;;23.00;29.00;;;;;;466026;254;1304;-40
2022/01/28 11:54:23;;;;;;;;;;;23.10;29.00;;;;;;466047;254;1110;-40
2022/01/28 11:56:24;;;;;;;;;;;23.10;29.00;;;;;;466064;255;2084;-40
2022/01/28 11:58:25;;;;;;;;;;;23.10;29.00;;;;;;466299;254;1172;-40
2022/01/28 12:00:27;;;;;;;;;;;23.00;28.90;;;;;;465839;254;1278;-40
2022/01/28 12:02:28;;;;;;;;;;;23.10;29.00;;;;;;466272;254;1624;-40
2022/01/28 12:04:31;;;;;;;;;;;23.10;29.00;;;;;;466101;254;2189;-40
2022/01/28 12:06:31;;;;;;;;;;;23.10;29.00;;;;;;466062;254;2211;-40
2022/01/28 12:08:32;;;;;;;;;;;23.10;29.00;;;;;;466060;254;1143;-40
2022/01/28 12:10:39;;;;;;;;;;;23.10;28.90;;;;;;465977;254;1467;-40
2022/01/28 12:12:35;;;;;;;;;;;23.10;29.00;;;;;;465674;255;2183;-40
2022/01/28 12:14:36;;;;;;;;;;;23.10;29.00;;;;;;465934;254;1087;-40
2022/01/28 12:16:41;;;;;;;;;;;23.10;29.00;;;;;;465884;254;1333;-40
2022/01/28 12:18:39;;;;;;;;;;;23.10;29.00;;;;;;465618;255;1780;-40
2022/01/28 12:20:40;;;;;;;;;;;23.10;28.90;;;;;;465711;254;1326;-40
2022/01/28 12:22:41;;;;;;;;;;;23.10;28.90;;;;;;466223;254;1258;-40
2022/01/28 12:24:43;;;;;;;;;;;23.10;28.90;;;;;;465938;254;2134;-40
2022/01/28 12:26:44;;;;;;;;;;;23.10;29.10;;;;;;465943;254;1636;-40
2022/01/28 12:28:45;;;;;;;;;;;23.00;29.10;;;;;;466371;254;1117;-40
2022/01/28 12:30:47;;;;;;;;;;;22.90;29.20;;;;;;465936;254;1364;-40
2022/01/28 12:32:48;;;;;;;;;;;22.70;29.40;;;;;;466159;254;1308;-40
2022/01/28 12:34:49;;;;;;;;;;;22.50;29.60;;;;;;466037;254;1173;-40
2022/01/28 12:36:51;;;;;;;;;;;22.40;29.70;;;;;;465951;254;1201;-40
2022/01/28 12:39:06;;;;;;;;;;;22.40;29.80;;;;;;466001;254;1173;-40